Time;durP1;ratioP1;P1;durP2;ratioP2;P2;SDS_P1;SDS_P2;PMS_P1;PMS_P2;Temp;Humidity;BMP_temperature;BMP_pressure;BME280_temperature;BME280_humidity;BME280_pressure;Samples;Min_cycle;Max_cycle;Signal;HPM_P1;HPM_P2
2023/05/04 07:36:26;;;;;;;25.88;7.75;;;;;;;10.85;100.00;101736.59;5110321;27;20361;-73
2023/05/04 07:38:53;;;;;;;18.67;8.35;;;;;;;11.12;100.00;101738.63;5105203;28;20040;-72
2023/05/04 07:41:19;;;;;;;19.00;8.77;;;;;;;11.33;100.00;101733.09;5102944;28;20090;-74
2023/05/04 07:43:46;;;;;;;22.38;8.13;;;;;;;11.52;100.00;101727.09;5091862;28;20455;-72
2023/05/04 07:46:13;;;;;;;16.83;8.18;;;;;;;11.68;100.00;101727.47;5083391;28;20064;-74
2023/05/04 07:48:39;;;;;;;17.27;6.95;;;;;;;11.82;100.00;101721.09;5077899;28;20246;-73
2023/05/04 07:51:12;;;;;;;15.68;7.75;;;;;;;11.95;100.00;101727.81;5081536;28;20077;-74
2023/05/04 07:53:39;;;;;;;18.50;8.48;;;;;;;12.07;100.00;101719.00;5081821;28;20054;-74
2023/05/04 07:56:11;;;;;;;19.08;8.13;;;;;;;12.18;100.00;101722.53;5089036;28;20054;-72
2023/05/04 07:58:38;;;;;;;19.60;7.18;;;;;;;12.36;100.00;101712.94;5091941;28;20110;-72
2023/05/04 08:01:04;;;;;;;18.52;7.57;;;;;;;12.53;100.00;101720.41;5083135;28;20044;-72
2023/05/04 08:03:31;;;;;;;17.00;7.28;;;;;;;12.72;100.00;101715.53;5081395;28;20063;-74
2023/05/04 08:05:57;;;;;;;15.95;6.90;;;;;;;12.88;100.00;101710.22;5083220;28;20051;-75
2023/05/04 08:08:24;;;;;;;18.50;7.18;;;;;;;13.02;100.00;101710.13;5082063;28;20052;-73
2023/05/04 08:10:51;;;;;;;20.02;7.20;;;;;;;13.16;100.00;101710.03;5082104;28;20059;-72
2023/05/04 08:13:17;;;;;;;17.70;7.35;;;;;;;13.27;100.00;101708.72;5083211;28;20131;-73
2023/05/04 08:15:44;;;;;;;23.30;7.38;;;;;;;13.44;100.00;101704.22;5082475;28;20828;-72
2023/05/04 08:18:11;;;;;;;15.73;7.00;;;;;;;13.59;100.00;101709.25;5077609;28;20050;-72
2023/05/04 08:20:37;;;;;;;16.40;6.82;;;;;;;13.72;100.00;101698.34;5081105;28;20048;-72
2023/05/04 08:23:04;;;;;;;13.05;6.75;;;;;;;13.90;100.00;101698.94;5090997;28;20048;-74
2023/05/04 08:25:30;;;;;;;16.58;7.00;;;;;;;14.03;100.00;101697.97;5083442;28;20053;-74
2023/05/04 08:27:57;;;;;;;12.95;5.85;;;;;;;14.16;100.00;101696.22;5089805;28;20052;-73
2023/05/04 08:30:23;;;;;;;18.48;7.30;;;;;;;14.29;100.00;101693.66;5082491;28;20048;-71
2023/05/04 08:32:51;;;;;;;18.98;7.03;;;;;;;14.40;100.00;101694.31;5083143;28;20048;-76
2023/05/04 08:35:18;;;;;;;18.13;7.00;;;;;;;14.46;100.00;101696.25;5082658;28;20048;-74
2023/05/04 08:37:46;;;;;;;16.27;7.07;;;;;;;14.51;100.00;101690.19;5083345;28;20143;-72
2023/05/04 08:40:13;;;;;;;18.30;6.47;;;;;;;14.67;100.00;101687.56;5080015;28;20415;-75
2023/05/04 08:42:43;;;;;;;20.23;7.18;;;;;;;14.79;100.00;101686.97;5082112;28;20056;-71
2023/05/04 08:45:09;;;;;;;18.90;7.93;;;;;;;14.91;100.00;101691.19;5082645;28;20131;-73
2023/05/04 08:47:36;;;;;;;14.68;6.85;;;;;;;14.97;100.00;101678.28;5068301;28;20070;-74
2023/05/04 08:50:03;;;;;;;16.17;6.70;;;;;;;15.05;100.00;101671.34;5073963;28;20517;-73
2023/05/04 08:52:30;;;;;;;16.20;6.93;;;;;;;15.13;100.00;101675.63;5073958;28;20113;-72
2023/05/04 08:54:57;;;;;;;18.38;6.55;;;;;;;15.29;100.00;101678.53;5069726;28;20147;-73
2023/05/04 08:57:24;;;;;;;14.38;6.60;;;;;;;15.42;100.00;101671.13;5059540;28;20063;-72
2023/05/04 08:59:53;;;;;;;16.30;6.15;;;;;;;15.56;100.00;101670.84;5067253;28;20048;-73
2023/05/04 09:02:21;;;;;;;32.63;9.38;;;;;;;15.63;100.00;101659.50;5068498;28;20904;-71
2023/05/04 09:04:52;;;;;;;14.63;6.43;;;;;;;15.77;100.00;101675.28;5069187;28;20044;-72
2023/05/04 09:07:20;;;;;;;21.48;6.90;;;;;;;15.87;100.00;101663.84;5069705;28;20499;-75
2023/05/04 09:09:49;;;;;;;15.48;6.72;;;;;;;15.93;100.00;101662.13;5055538;28;20060;-75
2023/05/04 09:12:17;;;;;;;15.23;6.00;;;;;;;16.10;100.00;101666.56;5055921;28;20068;-74
2023/05/04 09:14:45;;;;;;;15.07;6.47;;;;;;;16.25;100.00;101662.28;5054015;28;20044;-73
2023/05/04 09:17:24;;;;;;;19.08;7.22;;;;;;;16.42;100.00;101665.91;5069379;28;20602;-74
2023/05/04 09:20:01;;;;;;;16.30;7.28;;;;;;;16.56;100.00;101662.78;5061573;28;20850;-75
2023/05/04 09:22:29;;;;;;;18.48;6.35;;;;;;;16.63;100.00;101659.81;5061116;28;20052;-76
2023/05/04 09:25:07;;;;;;;15.45;6.90;;;;;;;16.71;100.00;101650.78;5064002;28;20159;-73
2023/05/04 09:27:33;;;;;;;13.95;6.50;;;;;;;16.87;100.00;101650.00;5062762;28;20086;-73
2023/05/04 09:30:00;;;;;;;16.00;6.30;;;;;;;16.96;100.00;101650.97;5058060;28;20062;-73
2023/05/04 09:32:27;;;;;;;16.33;6.43;;;;;;;17.03;97.90;101653.59;5056988;28;20139;-75
2023/05/04 09:34:53;;;;;;;16.35;7.40;;;;;;;17.17;97.97;101639.22;5068782;28;20052;-73
2023/05/04 09:37:21;;;;;;;16.80;6.07;;;;;;;17.31;99.59;101633.22;5057306;28;20056;-73
2023/05/04 09:39:55;;;;;;;17.00;6.55;;;;;;;17.46;97.99;101641.28;5057369;28;20052;-74
2023/05/04 09:42:22;;;;;;;17.05;6.03;;;;;;;17.57;97.23;101627.72;5059581;28;20094;-73
2023/05/04 09:45:03;;;;;;;16.27;6.05;;;;;;;17.68;94.91;101628.22;5060457;28;20062;-74
2023/05/04 09:47:35;;;;;;;16.08;6.75;;;;;;;17.85;96.88;101629.75;5055932;28;20045;-74
2023/05/04 09:50:11;;;;;;;17.63;6.13;;;;;;;17.96;92.88;101621.81;5059317;28;20138;-72
2023/05/04 09:52:39;;;;;;;16.77;6.22;;;;;;;18.04;94.30;101625.97;5058976;28;20167;-73
2023/05/04 09:55:09;;;;;;;16.50;6.53;;;;;;;18.22;93.53;101618.56;5063495;28;20040;-72
2023/05/04 09:57:36;;;;;;;14.45;5.38;;;;;;;18.33;93.01;101612.63;5052140;28;20496;-72
2023/05/04 10:00:03;;;;;;;16.50;7.18;;;;;;;18.52;92.90;101614.41;5055565;28;20055;-77
2023/05/04 10:02:31;;;;;;;16.60;6.85;;;;;;;18.58;89.65;101610.59;5059760;28;20053;-74
2023/05/04 10:04:59;;;;;;;20.65;6.75;;;;;;;18.70;88.69;101609.78;5058195;28;20050;-74
2023/05/04 10:07:30;;;;;;;16.20;6.25;;;;;;;18.82;87.18;101609.03;5054247;28;20062;-73
2023/05/04 10:10:00;;;;;;;20.08;6.28;;;;;;;19.00;87.73;101608.44;5066124;28;20130;-73
2023/05/04 10:12:26;;;;;;;15.15;6.07;;;;;;;19.09;83.22;101597.25;5065039;28;20053;-73
2023/05/04 10:14:53;;;;;;;15.93;6.50;;;;;;;19.12;83.29;101582.25;5065737;28;20040;-76
2023/05/04 10:17:41;;;;;;;17.08;6.65;;;;;;;19.15;81.40;101581.31;5053990;28;20052;-76
2023/05/04 10:20:45;;;;;;;15.30;7.10;;;;;;;19.29;81.87;101575.97;5056911;28;20048;-72
2023/05/04 10:23:30;;;;;;;10.93;5.28;;;;;;;19.47;83.25;101578.13;5062484;28;20128;-72
2023/05/04 10:26:12;;;;;;;15.25;6.22;;;;;;;19.55;80.71;101579.50;5066449;28;20151;-70
2023/05/04 10:28:38;;;;;;;15.50;5.78;;;;;;;19.72;78.07;101563.94;5068101;28;20499;-73
2023/05/04 10:31:06;;;;;;;14.32;6.03;;;;;;;19.83;75.22;101561.50;5067621;28;20040;-73
2023/05/04 10:33:40;;;;;;;14.77;5.88;;;;;;;19.94;76.96;101561.09;5064547;28;20051;-72
2023/05/04 10:36:08;;;;;;;12.95;5.72;;;;;;;19.89;69.53;101556.84;5067205;28;20067;-72
2023/05/04 10:38:36;;;;;;;14.43;5.65;;;;;;;20.06;75.14;101563.84;5066430;28;20538;-71
2023/05/04 10:41:13;;;;;;;14.55;5.90;;;;;;;20.13;71.06;101549.44;5067287;28;20048;-72
2023/05/04 10:43:41;;;;;;;16.17;5.93;;;;;;;20.23;71.13;101542.63;5063067;28;20491;-75
2023/05/04 10:46:17;;;;;;;14.35;5.95;;;;;;;20.42;72.69;101541.41;5050617;28;20060;-73
2023/05/04 10:48:44;;;;;;;16.58;6.00;;;;;;;20.64;71.17;101536.47;5043035;28;21076;-75
2023/05/04 10:51:18;;;;;;;15.10;4.72;;;;;;;20.76;69.15;101532.69;5050363;28;20044;-74
2023/05/04 10:53:46;;;;;;;15.40;6.07;;;;;;;20.83;67.66;101521.09;5050549;28;20063;-72
2023/05/04 10:56:39;;;;;;;13.50;5.07;;;;;;;20.92;65.44;101520.31;5055470;28;20048;-72
2023/05/04 10:59:09;;;;;;;11.57;4.72;;;;;;;21.03;65.64;101515.81;5053968;28;20075;-72
2023/05/04 11:01:46;;;;;;;13.68;5.60;;;;;;;21.18;61.45;101511.09;5065035;28;20063;-73
2023/05/04 11:04:20;;;;;;;14.38;5.65;;;;;;;21.34;61.65;101513.63;5056006;28;20048;-74
2023/05/04 11:07:07;;;;;;;10.57;5.82;;;;;;;21.29;57.24;101502.91;5055170;28;21906;-73
2023/05/04 11:09:38;;;;;;;11.52;5.75;;;;;;;21.32;59.82;101504.81;5061029;28;20067;-71
2023/05/04 11:12:06;;;;;;;17.13;6.15;;;;;;;21.46;58.57;101501.31;5067052;28;20052;-73
2023/05/04 11:14:36;;;;;;;13.63;5.78;;;;;;;21.64;58.86;101487.16;5058131;28;20049;-71
2023/05/04 11:17:10;;;;;;;12.77;5.40;;;;;;;21.80;56.56;101491.66;5064192;28;20052;-72
2023/05/04 11:19:54;;;;;;;12.73;5.75;;;;;;;21.86;54.06;101487.72;5065496;28;20426;-71
2023/05/04 11:22:20;;;;;;;13.80;5.85;;;;;;;21.86;53.65;101490.56;5064187;28;20174;-71
2023/05/04 11:24:50;;;;;;;17.00;5.88;;;;;;;21.86;53.23;101489.75;5058189;28;20151;-73
2023/05/04 11:27:24;;;;;;;9.82;5.10;;;;;;;22.02;54.51;101492.22;5060485;28;20069;-71
2023/05/04 11:29:59;;;;;;;14.30;5.40;;;;;;;22.10;52.04;101491.41;5059389;28;20499;-72
2023/05/04 11:32:35;;;;;;;13.00;6.18;;;;;;;22.24;52.38;101489.13;5066468;28;20651;-73
2023/05/04 11:35:03;;;;;;;13.80;6.05;;;;;;;22.46;51.59;101478.31;5066414;28;20040;-72
2023/05/04 11:37:37;;;;;;;12.88;5.90;;;;;;;22.49;49.74;101474.53;5063870;28;20060;-70
2023/05/04 11:40:12;;;;;;;15.02;5.70;;;;;;;22.74;49.31;101474.06;5066816;28;20048;-73
2023/05/04 11:42:41;;;;;;;8.45;4.63;;;;;;;22.77;48.94;101456.06;5067030;28;20232;-74
2023/05/04 11:45:23;;;;;;;11.38;4.57;;;;;;;22.90;47.54;101450.91;5070260;28;20102;-73
2023/05/04 11:47:51;;;;;;;10.68;5.30;;;;;;;23.13;47.65;101450.91;5061956;28;20056;-72
2023/05/04 11:50:19;;;;;;;13.13;6.18;;;;;;;23.45;46.91;101432.13;5061469;28;20052;-71
2023/05/04 11:52:47;;;;;;;14.80;5.40;;;;;;;23.40;44.83;101435.66;5052159;28;20052;-75
2023/05/04 11:55:26;;;;;;;11.65;4.78;;;;;;;23.58;44.90;101430.56;5062328;28;20053;-71
2023/05/04 11:58:00;;;;;;;10.98;4.80;;;;;;;23.97;44.23;101429.13;5063073;28;20059;-70
2023/05/04 12:00:43;;;;;;;9.75;4.32;;;;;;;24.23;42.98;101429.28;5064040;28;20051;-67
2023/05/04 12:03:14;;;;;;;12.32;4.90;;;;;;;24.46;41.48;101419.78;5063967;28;20075;-73
2023/05/04 12:05:53;;;;;;;12.15;4.60;;;;;;;24.77;40.63;101422.75;5062414;28;20052;-70
2023/05/04 12:08:29;;;;;;;10.75;4.93;;;;;;;25.05;39.61;101421.03;5067548;28;20056;-70
2023/05/04 12:11:15;;;;;;;10.88;4.10;;;;;;;25.27;38.46;101409.84;5059382;28;20062;-72
2023/05/04 12:13:44;;;;;;;8.13;3.85;;;;;;;25.79;38.04;101397.09;5058570;28;20106;-70
2023/05/04 12:16:12;;;;;;;8.40;4.03;;;;;;;26.13;37.69;101401.00;5060691;28;20060;-73
2023/05/04 12:18:40;;;;;;;11.80;4.40;;;;;;;26.37;36.89;101404.22;5063926;28;20479;-75
2023/05/04 12:21:17;;;;;;;7.30;4.00;;;;;;;26.81;36.56;101403.63;5068703;28;20051;-75
2023/05/04 12:23:45;;;;;;;9.05;3.70;;;;;;;26.99;34.58;101406.03;5065965;28;20048;-74
2023/05/04 12:26:13;;;;;;;10.13;3.90;;;;;;;27.47;34.48;101392.34;5067035;28;20461;-73
2023/05/04 12:28:41;;;;;;;10.00;3.67;;;;;;;27.82;34.16;101389.75;5061365;28;20071;-74
2023/05/04 12:31:08;;;;;;;10.85;3.75;;;;;;;28.29;35.17;101385.75;5066746;28;20052;-73
2023/05/04 12:33:35;;;;;;;6.38;3.45;;;;;;;28.35;32.21;101375.84;5069157;28;20048;-73
2023/05/04 12:36:04;;;;;;;8.65;3.88;;;;;;;28.57;31.29;101375.75;5057185;28;20059;-71
2023/05/04 12:38:31;;;;;;;6.45;3.17;;;;;;;28.84;30.97;101374.06;5068680;28;20056;-72
2023/05/04 12:41:01;;;;;;;7.28;3.33;;;;;;;29.17;31.40;101370.19;5059237;28;20062;-75
2023/05/04 12:43:27;;;;;;;8.10;3.60;;;;;;;29.46;31.68;101367.38;5067265;28;20063;-76
2023/05/04 12:45:54;;;;;;;7.30;3.22;;;;;;;29.60;32.25;101368.31;5067023;28;20068;-74
2023/05/04 12:48:20;;;;;;;9.93;4.05;;;;;;;29.66;30.40;101366.94;5065560;28;20060;-74
2023/05/04 12:50:50;;;;;;;7.82;3.47;;;;;;;30.04;30.88;101365.78;5069431;28;20080;-70
2023/05/04 12:53:17;;;;;;;8.77;3.80;;;;;;;30.08;30.35;101354.78;5071481;28;20128;-70
2023/05/04 12:55:44;;;;;;;8.73;3.65;;;;;;;30.32;30.54;101354.75;5065677;28;20045;-72
2023/05/04 12:58:10;;;;;;;8.02;3.30;;;;;;;30.38;29.17;101346.09;5063871;28;20044;-71
2023/05/04 13:00:37;;;;;;;10.90;3.42;;;;;;;30.34;28.42;101331.28;5063381;28;20044;-72
2023/05/04 13:03:04;;;;;;;8.80;3.30;;;;;;;30.17;27.42;101328.59;5062074;28;20056;-73
2023/05/04 13:05:31;;;;;;;8.70;3.25;;;;;;;30.31;28.03;101324.50;5061187;28;20045;-71
2023/05/04 13:07:58;;;;;;;8.35;3.00;;;;;;;30.51;27.85;101321.13;5061915;28;20048;-74
2023/05/04 13:10:24;;;;;;;9.48;2.97;;;;;;;30.49;28.14;101317.25;5069066;28;20052;-73
2023/05/04 13:12:51;;;;;;;9.00;3.22;;;;;;;30.11;26.66;101319.31;5068264;28;20574;-72
2023/05/04 13:15:18;;;;;;;6.85;2.92;;;;;;;30.09;26.15;101304.72;5069159;28;20106;-72
2023/05/04 13:17:44;;;;;;;6.95;3.33;;;;;;;30.28;26.98;101299.00;5060052;28;20044;-73
2023/05/04 13:20:11;;;;;;;5.10;3.00;;;;;;;30.26;26.92;101293.81;5061329;28;20044;-72
2023/05/04 13:22:39;;;;;;;5.07;3.17;;;;;;;30.36;27.57;101297.88;5074991;28;20057;-69
2023/05/04 13:25:06;;;;;;;9.80;3.65;;;;;;;30.41;28.36;101294.16;5060676;28;20066;-73
2023/05/04 13:27:33;;;;;;;12.18;4.50;;;;;;;30.27;28.95;101275.28;5056209;28;20135;-73
2023/05/04 13:30:01;;;;;;;12.90;3.85;;;;;;;30.40;28.98;101286.88;5057729;28;20053;-72
2023/05/04 13:32:29;;;;;;;11.52;4.32;;;;;;;30.21;28.84;101285.28;5056664;28;20494;-72
2023/05/04 13:34:56;;;;;;;9.23;4.20;;;;;;;30.32;28.92;101273.66;5072314;28;20059;-76
2023/05/04 13:37:23;;;;;;;8.38;4.40;;;;;;;30.01;28.66;101272.25;5069649;28;20056;-74
2023/05/04 13:39:49;;;;;;;11.15;4.63;;;;;;;30.00;29.30;101264.97;5066632;28;20211;-72
2023/05/04 13:42:16;;;;;;;8.07;4.45;;;;;;;30.04;29.52;101258.94;5067845;28;20048;-74
2023/05/04 13:44:44;;;;;;;11.93;5.00;;;;;;;30.12;29.81;101249.16;5058178;28;20041;-74
2023/05/04 13:47:14;;;;;;;11.38;4.55;;;;;;;30.27;29.52;101249.47;5065674;28;20048;-74
2023/05/04 13:49:41;;;;;;;7.13;3.70;;;;;;;30.15;29.39;101253.03;5062980;28;20052;-72
2023/05/04 13:52:08;;;;;;;9.88;4.10;;;;;;;30.14;30.82;101254.38;5054617;28;20053;-75
2023/05/04 13:54:36;;;;;;;9.52;4.15;;;;;;;29.77;29.76;101252.22;5056172;28;20048;-72
2023/05/04 13:57:02;;;;;;;8.82;4.25;;;;;;;29.92;29.71;101243.97;5056261;28;20055;-72
2023/05/04 13:59:29;;;;;;;13.68;4.50;;;;;;;30.18;29.97;101237.63;5056686;28;20278;-72
2023/05/04 14:01:55;;;;;;;8.82;4.13;;;;;;;30.17;29.96;101230.34;5055819;28;20080;-73
2023/05/04 14:04:22;;;;;;;9.35;4.15;;;;;;;30.19;30.44;101231.34;5054388;28;20045;-72
2023/05/04 14:06:50;;;;;;;11.02;4.35;;;;;;;29.95;29.96;101222.81;5054883;28;20044;-74
2023/05/04 14:09:18;;;;;;;11.13;4.38;;;;;;;30.06;29.49;101222.66;5054384;28;20048;-77
2023/05/04 14:11:45;;;;;;;9.88;4.00;;;;;;;29.98;29.50;101210.28;5056600;28;20048;-72
2023/05/04 14:14:12;;;;;;;8.88;4.70;;;;;;;29.93;29.87;101213.22;5053846;28;20507;-73
2023/05/04 14:16:38;;;;;;;10.68;4.57;;;;;;;29.51;29.80;101213.94;5057790;28;20059;-74
2023/05/04 14:19:05;;;;;;;10.63;4.07;;;;;;;29.33;29.69;101211.81;5054722;28;20052;-74
2023/05/04 14:21:31;;;;;;;8.98;4.18;;;;;;;29.24;30.29;101207.19;5055781;28;20052;-75
2023/05/04 14:23:58;;;;;;;7.25;4.13;;;;;;;29.18;30.54;101208.53;5054648;28;20071;-75
2023/05/04 14:26:24;;;;;;;8.43;4.47;;;;;;;28.86;30.59;101203.38;5058046;28;20052;-75
2023/05/04 14:28:51;;;;;;;12.15;4.30;;;;;;;28.55;31.06;101197.41;5058246;28;20044;-72
2023/05/04 14:31:17;;;;;;;7.95;4.35;;;;;;;28.24;31.30;101192.09;5060849;28;20067;-71
2023/05/04 14:33:44;;;;;;;11.48;4.13;;;;;;;27.98;31.82;101197.47;5055993;28;20048;-74
2023/05/04 14:36:11;;;;;;;12.05;4.50;;;;;;;27.65;32.01;101191.88;5066853;28;20044;-74
2023/05/04 14:38:37;;;;;;;9.23;4.43;;;;;;;27.68;32.57;101185.13;5068115;28;20055;-73
2023/05/04 14:41:04;;;;;;;12.18;5.13;;;;;;;27.56;32.82;101189.31;5067234;28;20105;-72
2023/05/04 14:43:31;;;;;;;12.35;5.55;;;;;;;27.48;33.10;101188.31;5065754;28;20056;-74
2023/05/04 14:45:58;;;;;;;11.07;4.70;;;;;;;27.58;33.42;101176.06;5064605;28;20541;-72
2023/05/04 14:48:26;;;;;;;12.88;5.68;;;;;;;27.58;33.13;101181.00;5067406;28;20052;-73
2023/05/04 14:50:53;;;;;;;12.68;4.55;;;;;;;27.44;33.28;101171.44;5079978;28;20068;-72
2023/05/04 14:53:20;;;;;;;10.68;4.82;;;;;;;27.48;33.86;101163.41;5081121;28;20054;-73
2023/05/04 14:55:48;;;;;;;12.82;5.18;;;;;;;27.48;33.61;101151.19;5059047;28;20058;-70
2023/05/04 14:58:16;;;;;;;9.93;4.10;;;;;;;27.38;33.36;101156.41;5065470;28;20055;-73
2023/05/04 15:00:45;;;;;;;11.90;4.30;;;;;;;27.20;34.80;101145.56;5064333;28;20064;-74
2023/05/04 15:03:12;;;;;;;13.93;4.90;;;;;;;27.01;34.70;101140.91;5067365;28;20052;-74
2023/05/04 15:05:39;;;;;;;11.60;4.60;;;;;;;27.03;34.59;101141.19;5066036;28;20056;-74
2023/05/04 15:08:05;;;;;;;9.65;5.22;;;;;;;26.64;35.11;101132.69;5065144;28;20155;-73
2023/05/04 15:10:32;;;;;;;12.27;5.03;;;;;;;26.36;35.32;101129.78;5067148;28;20124;-75
2023/05/04 15:13:00;;;;;;;13.32;5.40;;;;;;;26.29;35.72;101136.00;5065515;28;20044;-75
2023/05/04 15:15:27;;;;;;;12.10;5.20;;;;;;;26.18;36.55;101124.59;5065879;28;20076;-73
2023/05/04 15:17:53;;;;;;;12.70;5.07;;;;;;;26.05;37.12;101121.47;5074784;28;20032;-73
2023/05/04 15:20:21;;;;;;;10.93;5.25;;;;;;;25.78;37.42;101129.94;5075481;28;20481;-73
2023/05/04 15:22:51;;;;;;;10.20;4.75;;;;;;;25.65;37.98;101129.63;5063829;28;20695;-73
2023/05/04 15:25:22;;;;;;;13.82;6.00;;;;;;;25.59;38.71;101121.06;5066581;28;20053;-76
2023/05/04 15:27:49;;;;;;;8.63;4.00;;;;;;;25.59;38.89;101112.53;5065470;28;20076;-73
2023/05/04 15:30:16;;;;;;;13.00;4.43;;;;;;;25.49;38.84;101114.06;5067087;28;20059;-74
2023/05/04 15:32:42;;;;;;;12.63;4.25;;;;;;;25.29;37.99;101110.56;5065965;28;20072;-74
2023/05/04 15:35:09;;;;;;;12.05;4.82;;;;;;;25.04;38.31;101115.06;5066020;28;20048;-73
2023/05/04 15:37:35;;;;;;;13.80;4.60;;;;;;;24.96;39.05;101128.22;5065205;28;20518;-75
2023/05/04 15:40:03;;;;;;;9.82;4.40;;;;;;;24.82;39.54;101106.38;5065483;28;20051;-75
2023/05/04 15:42:30;;;;;;;15.27;4.22;;;;;;;24.67;40.36;101107.84;5063732;28;20510;-75
2023/05/04 15:44:56;;;;;;;13.15;5.00;;;;;;;24.56;40.41;101119.91;5066565;28;20040;-72
2023/05/04 15:47:23;;;;;;;11.55;4.45;;;;;;;24.43;40.22;101111.00;5065882;28;20036;-75
2023/05/04 15:49:51;;;;;;;11.98;4.40;;;;;;;24.30;40.93;101099.28;5065368;28;20060;-72
2023/05/04 15:52:17;;;;;;;14.18;4.93;;;;;;;24.10;41.37;101102.94;5073517;28;20062;-75
2023/05/04 15:54:46;;;;;;;9.85;4.57;;;;;;;24.05;41.37;101094.38;5059043;28;20051;-73
2023/05/04 15:57:13;;;;;;;9.88;4.57;;;;;;;23.99;41.53;101093.53;5072896;28;20075;-72
2023/05/04 15:59:40;;;;;;;9.20;4.68;;;;;;;23.98;42.09;101101.28;5077503;28;20112;-76
2023/05/04 16:02:07;;;;;;;10.45;4.43;;;;;;;23.90;41.70;101099.38;5065170;28;20048;-74
2023/05/04 16:04:33;;;;;;;7.78;4.03;;;;;;;23.80;42.79;101100.84;5068751;28;20652;-72
2023/05/04 16:07:00;;;;;;;9.85;4.10;;;;;;;23.74;42.71;101094.31;5067342;28;20052;-74
2023/05/04 16:09:28;;;;;;;10.98;4.00;;;;;;;23.75;43.33;101098.69;5068972;28;20052;-74
2023/05/04 16:11:55;;;;;;;15.15;5.28;;;;;;;23.70;43.80;101088.84;5072724;28;20522;-77
2023/05/04 16:14:22;;;;;;;10.95;4.38;;;;;;;23.70;43.43;101088.06;5064491;28;20056;-77
2023/05/04 16:16:48;;;;;;;7.85;3.88;;;;;;;23.66;44.14;101090.38;5073665;28;20054;-72
2023/05/04 16:19:15;;;;;;;10.13;3.80;;;;;;;23.70;43.96;101088.06;5068055;28;20075;-75
2023/05/04 16:21:43;;;;;;;12.98;3.85;;;;;;;23.68;44.41;101082.91;5069465;28;20109;-72
2023/05/04 16:24:11;;;;;;;9.05;4.35;;;;;;;23.63;44.50;101088.50;5069598;28;20048;-75
2023/05/04 16:26:39;;;;;;;10.75;3.95;;;;;;;23.68;43.94;101088.56;5068192;28;20099;-76
2023/05/04 16:29:05;;;;;;;12.38;3.75;;;;;;;23.74;44.38;101089.41;5067091;28;20052;-74
2023/05/04 16:31:32;;;;;;;10.35;3.50;;;;;;;23.75;44.61;101076.00;5069132;28;20131;-74
2023/05/04 16:33:58;;;;;;;7.50;3.95;;;;;;;23.83;43.81;101085.63;5060170;28;20522;-74
2023/05/04 16:36:25;;;;;;;9.68;4.00;;;;;;;23.82;43.22;101086.91;5069808;28;20066;-76
2023/05/04 16:38:51;;;;;;;9.73;4.00;;;;;;;23.72;42.68;101077.00;5076841;28;20118;-72
2023/05/04 16:41:18;;;;;;;13.35;3.75;;;;;;;23.51;42.33;101084.75;5069726;28;20517;-73
2023/05/04 16:43:46;;;;;;;11.98;3.70;;;;;;;23.42;42.16;101081.28;5065367;28;20048;-74
2023/05/04 16:46:12;;;;;;;13.10;4.20;;;;;;;23.43;42.89;101077.16;5062413;28;20052;-76
2023/05/04 16:48:39;;;;;;;6.85;3.15;;;;;;;23.26;43.65;101074.09;5055849;28;20052;-72
2023/05/04 16:51:07;;;;;;;9.98;3.60;;;;;;;23.21;43.62;101074.03;5059851;28;20888;-76
2023/05/04 16:53:34;;;;;;;8.20;4.13;;;;;;;23.17;44.26;101076.31;5056273;28;20136;-75
2023/05/04 16:56:01;;;;;;;10.27;3.30;;;;;;;23.12;45.43;101074.94;5058126;28;20052;-75
2023/05/04 16:58:27;;;;;;;8.38;4.00;;;;;;;23.11;45.65;101070.56;5056837;28;20076;-75
2023/05/04 17:00:54;;;;;;;7.53;3.22;;;;;;;22.99;46.32;101068.09;5053050;28;20770;-72
2023/05/04 17:03:21;;;;;;;8.48;3.40;;;;;;;22.92;46.61;101054.31;5055121;28;20080;-75
2023/05/04 17:05:48;;;;;;;8.98;3.40;;;;;;;22.81;46.58;101059.81;5055213;28;20151;-73
2023/05/04 17:08:16;;;;;;;8.80;3.78;;;;;;;22.69;48.37;101060.94;5054977;28;20072;-79
2023/05/04 17:10:42;;;;;;;11.10;4.22;;;;;;;22.61;49.86;101060.53;5059033;28;20047;-71
2023/05/04 17:13:09;;;;;;;11.18;3.75;;;;;;;22.55;50.89;101054.03;5055179;28;20533;-73
2023/05/04 17:15:35;;;;;;;9.77;3.75;;;;;;;22.55;51.25;101047.59;5055343;28;20076;-78
2023/05/04 17:18:02;;;;;;;8.05;4.10;;;;;;;22.49;52.56;101050.34;5053920;28;20507;-72
2023/05/04 17:20:30;;;;;;;9.82;3.95;;;;;;;22.39;52.67;101057.38;5054562;28;20060;-73
2023/05/04 17:22:59;;;;;;;9.85;4.00;;;;;;;22.38;51.62;101055.03;5053050;28;21858;-74
2023/05/04 17:25:26;;;;;;;9.80;3.90;;;;;;;22.32;53.50;101060.63;5056413;28;20052;-78
2023/05/04 17:27:53;;;;;;;9.88;4.10;;;;;;;22.24;54.47;101061.47;5054105;28;20058;-74
2023/05/04 17:30:20;;;;;;;8.90;4.00;;;;;;;22.17;54.01;101056.22;5064764;28;20055;-72
2023/05/04 17:32:47;;;;;;;10.77;3.97;;;;;;;22.09;54.87;101067.94;5067072;28;20518;-74
2023/05/04 17:35:14;;;;;;;13.73;4.00;;;;;;;21.94;53.76;101058.66;5066918;28;20715;-73
2023/05/04 17:37:51;;;;;;;12.02;4.15;;;;;;;21.88;55.91;101065.50;5068716;28;20044;-74
2023/05/04 17:40:22;;;;;;;11.02;4.00;;;;;;;21.69;56.36;101056.41;5069101;28;20118;-71
2023/05/04 17:42:48;;;;;;;8.00;3.70;;;;;;;21.73;56.83;101068.31;5068138;28;20071;-73
2023/05/04 17:45:15;;;;;;;9.05;3.88;;;;;;;21.68;56.99;101065.38;5072146;28;20057;-74
2023/05/04 17:47:43;;;;;;;9.65;3.83;;;;;;;21.56;58.80;101057.91;5065649;28;20042;-73
2023/05/04 17:50:10;;;;;;;9.55;3.92;;;;;;;21.49;59.72;101067.56;5064359;28;20131;-77
2023/05/04 17:52:37;;;;;;;10.70;4.28;;;;;;;21.41;59.79;101065.59;5076095;28;20105;-77
2023/05/04 17:55:04;;;;;;;9.57;4.15;;;;;;;21.36;59.76;101071.91;5060931;28;20047;-74
2023/05/04 17:57:30;;;;;;;11.70;3.83;;;;;;;21.25;59.43;101066.81;5057720;28;20060;-74
2023/05/04 17:59:57;;;;;;;12.68;3.80;;;;;;;21.19;60.06;101062.28;5068419;28;20426;-77
2023/05/04 18:02:23;;;;;;;7.53;3.75;;;;;;;21.12;62.04;101052.16;5067602;28;20499;-74
2023/05/04 18:04:50;;;;;;;10.02;4.03;;;;;;;21.01;61.68;101054.75;5066282;28;20044;-75
2023/05/04 18:07:16;;;;;;;10.73;3.80;;;;;;;20.95;62.21;101065.13;5067946;28;20498;-73
2023/05/04 18:09:43;;;;;;;11.88;4.32;;;;;;;20.90;61.85;101065.00;5068067;28;20040;-72
2023/05/04 18:12:09;;;;;;;9.68;3.72;;;;;;;20.81;63.57;101079.97;5067611;28;20044;-74
2023/05/04 18:14:36;;;;;;;8.13;3.80;;;;;;;20.80;62.63;101069.94;5067118;28;20045;-72
2023/05/04 18:17:02;;;;;;;10.75;4.00;;;;;;;20.77;64.45;101070.09;5063055;28;20067;-75
2023/05/04 18:19:33;;;;;;;10.25;3.97;;;;;;;20.72;67.13;101079.22;5059992;28;20048;-75
2023/05/04 18:21:59;;;;;;;9.98;3.80;;;;;;;20.60;73.70;101078.19;5072206;28;20052;-75
2023/05/04 18:24:26;;;;;;;10.38;4.47;;;;;;;20.54;66.38;101071.63;5066458;28;20589;-75
2023/05/04 18:26:52;;;;;;;9.40;3.75;;;;;;;20.52;67.77;101082.59;5063258;28;20048;-75
2023/05/04 18:29:19;;;;;;;9.52;3.92;;;;;;;20.49;67.08;101082.78;5051372;28;20045;-75
2023/05/04 18:31:45;;;;;;;10.30;3.88;;;;;;;20.45;66.32;101088.59;5063966;28;20127;-78
2023/05/04 18:34:12;;;;;;;8.27;3.63;;;;;;;20.39;68.23;101090.50;5059067;28;20056;-75
2023/05/04 18:36:39;;;;;;;12.45;4.10;;;;;;;20.34;68.18;101088.34;5067086;28;20581;-73
2023/05/04 18:39:07;;;;;;;8.07;4.28;;;;;;;20.27;68.03;101087.88;5065281;28;20124;-76
2023/05/04 18:41:33;;;;;;;12.10;4.10;;;;;;;20.15;67.78;101089.59;5065984;28;20055;-74
2023/05/04 18:44:00;;;;;;;12.02;3.65;;;;;;;20.16;68.63;101096.03;5064494;28;20071;-76
2023/05/04 18:46:26;;;;;;;7.72;4.05;;;;;;;20.10;69.56;101095.91;5069289;28;20048;-74
2023/05/04 18:48:54;;;;;;;10.15;4.63;;;;;;;20.05;70.70;101098.59;5067790;28;20043;-74
2023/05/04 18:51:21;;;;;;;12.15;4.20;;;;;;;19.97;72.01;101088.88;5066919;28;20059;-75
2023/05/04 18:53:48;;;;;;;10.63;3.85;;;;;;;19.85;74.51;101085.00;5074504;28;20053;-73
2023/05/04 18:56:15;;;;;;;12.32;3.97;;;;;;;19.78;80.18;101090.97;5066312;28;20136;-74
2023/05/04 18:58:41;;;;;;;10.65;4.28;;;;;;;19.72;78.29;101087.19;5067636;28;20447;-74
2023/05/04 19:01:08;;;;;;;9.13;3.53;;;;;;;19.65;77.29;101087.53;5066844;28;20048;-74